Time;durP1;ratioP1;P1;durP2;ratioP2;P2;SDS_P1;SDS_P2;PMS_P1;PMS_P2;Temp;Humidity;BMP_temperature;BMP_pressure;BME280_temperature;BME280_humidity;BME280_pressure;Samples;Min_cycle;Max_cycle;Signal;HPM_P1;HPM_P2
2023/06/17 00:02:00;;;;;;;6.00;4.15;;;19.30;44.50;;;21.22;36.32;97592.81;5080360;28;20047;-38
2023/06/17 00:04:28;;;;;;;6.75;4.40;;;19.30;44.70;;;21.19;36.85;97590.59;5079426;28;20035;-39
2023/06/17 00:06:56;;;;;;;5.53;4.40;;;19.20;44.90;;;21.16;36.44;97584.81;5079717;28;20048;-39
2023/06/17 00:09:25;;;;;;;7.20;4.57;;;19.20;44.90;;;21.15;36.28;97583.16;5082530;28;20047;-39
2023/06/17 00:11:54;;;;;;;5.28;4.43;;;19.20;44.80;;;21.14;36.46;97586.91;5081177;28;20040;-39
2023/06/17 00:14:22;;;;;;;5.75;4.68;;;19.20;44.60;;;21.12;36.49;97584.44;5051499;28;20040;-39
2023/06/17 00:16:50;;;;;;;5.70;5.10;;;19.20;44.30;;;21.13;36.24;97587.97;5078813;28;20423;-39
2023/06/17 00:19:20;;;;;;;7.15;5.15;;;19.30;45.10;;;21.13;36.22;97585.25;5082850;28;20520;-38
2023/06/17 00:21:49;;;;;;;7.20;4.55;;;19.30;44.10;;;21.11;36.06;97581.97;5081994;28;20047;-39
2023/06/17 00:24:17;;;;;;;6.55;5.05;;;19.30;44.10;;;21.07;36.40;97578.88;5053396;28;20041;-39
2023/06/17 00:26:46;;;;;;;6.65;4.50;;;19.30;44.30;;;21.05;36.26;97581.00;5078659;28;20052;-39
2023/06/17 00:29:15;;;;;;;6.03;4.72;;;19.20;44.20;;;21.04;36.55;97563.13;5082677;28;20407;-38
2023/06/17 00:31:43;;;;;;;6.28;4.50;;;19.20;44.30;;;21.08;36.51;97563.50;5064250;28;20071;-39
2023/06/17 00:34:10;;;;;;;6.15;4.72;;;19.20;44.10;;;21.08;36.52;97564.31;5044552;28;20530;-39
2023/06/17 00:36:38;;;;;;;8.10;5.40;;;19.20;43.80;;;21.09;36.13;97563.25;5052393;28;20071;-38
2023/06/17 00:39:06;;;;;;;5.85;4.80;;;19.30;44.10;;;21.08;36.47;97567.00;5079148;28;20053;-38
2023/06/17 00:41:34;;;;;;;9.85;5.22;;;19.20;43.90;;;21.09;36.40;97565.13;5052781;28;20064;-39
2023/06/17 00:44:02;;;;;;;8.38;4.95;;;19.30;44.10;;;21.08;36.19;97564.31;5081128;28;20048;-39
2023/06/17 00:46:37;;;;;;;4.70;3.97;;;19.20;44.00;;;21.08;36.40;97558.06;5085668;28;20051;-39
2023/06/17 00:49:07;;;;;;;9.02;4.60;;;19.20;44.20;;;21.09;36.35;97560.53;5059744;28;20416;-39
2023/06/17 00:51:36;;;;;;;4.93;4.28;;;19.30;43.90;;;21.08;36.22;97558.91;5061777;28;20045;-39
2023/06/17 00:54:05;;;;;;;6.25;4.88;;;19.30;43.70;;;21.08;35.98;97556.19;5084706;28;20045;-39
2023/06/17 00:56:34;;;;;;;4.97;3.90;;;19.30;43.60;;;21.08;36.12;97552.66;5061136;28;20412;-39
2023/06/17 00:59:03;;;;;;;6.03;4.22;;;19.30;43.70;;;21.04;36.29;97558.53;5047308;28;20048;-39
2023/06/17 01:01:31;;;;;;;6.38;4.95;;;19.20;43.60;;;21.04;36.21;97552.28;5064197;28;20536;-39
2023/06/17 01:03:59;;;;;;;5.70;4.78;;;19.20;43.50;;;21.02;36.45;97554.41;5035905;28;20060;-39
2023/06/17 01:06:55;;;;;;;5.70;4.32;;;19.30;43.70;;;21.01;36.18;97553.59;5082304;28;20043;-39
2023/06/17 01:09:29;;;;;;;5.93;4.40;;;19.20;43.60;;;21.07;35.93;97559.13;5066781;28;20048;-39
2023/06/17 01:11:59;;;;;;;6.18;4.25;;;19.30;43.30;;;21.08;35.63;97555.38;5063328;28;20053;-39
2023/06/17 01:14:29;;;;;;;5.30;4.65;;;19.30;43.10;;;21.09;36.02;97559.72;5063086;28;20032;-38
2023/06/17 01:16:58;;;;;;;5.72;4.63;;;19.40;43.00;;;21.10;35.97;97553.25;5036424;28;20063;-39
2023/06/17 01:19:26;;;;;;;6.45;4.53;;;19.40;42.70;;;21.11;35.91;97560.31;5038855;28;20044;-39
2023/06/17 01:21:57;;;;;;;6.43;5.13;;;19.40;42.70;;;21.08;36.26;97556.19;5056420;28;20041;-39
2023/06/17 01:24:30;;;;;;;8.93;6.20;;;19.40;43.20;;;21.02;36.81;97554.41;5027707;28;20049;-39
2023/06/17 01:26:59;;;;;;;9.05;7.40;;;19.30;44.40;;;20.96;36.86;97564.28;5079198;28;20055;-39
2023/06/17 01:29:32;;;;;;;7.20;5.70;;;19.10;45.20;;;20.90;37.03;97567.06;5055439;28;20048;-39
2023/06/17 01:32:00;;;;;;;5.70;5.10;;;19.00;45.50;;;20.85;37.64;97560.44;5055255;28;20412;-38
2023/06/17 01:34:50;;;;;;;8.20;5.68;;;18.90;46.00;;;20.78;37.35;97562.44;5055332;28;20048;-39
2023/06/17 01:37:31;;;;;;;8.18;5.93;;;18.80;47.00;;;20.72;37.77;97565.22;5046806;28;20215;-39
2023/06/17 01:40:03;;;;;;;8.10;5.90;;;18.80;47.20;;;20.67;37.49;97567.81;5056331;28;20060;-39
2023/06/17 01:42:35;;;;;;;10.90;6.57;;;18.70;47.00;;;20.59;37.96;97567.06;5085308;28;20040;-39
2023/06/17 01:45:05;;;;;;;8.50;6.78;;;18.60;46.80;;;20.51;37.88;97564.63;5033860;28;20071;-38
2023/06/17 01:47:34;;;;;;;7.15;5.63;;;18.50;47.90;;;20.44;37.99;97564.69;5044028;28;20047;-39
2023/06/17 01:50:05;;;;;;;7.07;6.03;;;18.40;47.60;;;20.35;38.32;97557.94;5039738;28;20055;-38
2023/06/17 01:52:34;;;;;;;6.80;6.05;;;18.30;47.80;;;20.29;38.53;97564.25;5060846;28;20408;-39
2023/06/17 01:55:03;;;;;;;8.18;6.13;;;18.30;47.80;;;20.22;38.47;97560.78;5055386;28;20052;-39
2023/06/17 01:57:31;;;;;;;8.10;6.03;;;18.20;48.00;;;20.16;38.63;97567.09;5060265;28;20416;-38
2023/06/17 01:59:59;;;;;;;9.27;6.30;;;18.10;48.00;;;20.04;38.79;97565.13;5055406;28;20060;-38
2023/06/17 02:02:27;;;;;;;7.60;5.57;;;18.00;48.50;;;19.99;38.82;97567.69;5062057;28;20052;-39
2023/06/17 02:04:54;;;;;;;7.88;5.05;;;18.00;48.70;;;19.94;39.34;97562.13;5045842;28;20056;-39
2023/06/17 02:07:24;;;;;;;6.43;5.75;;;17.90;49.10;;;19.89;39.01;97558.44;5081122;28;20492;-38
2023/06/17 02:09:52;;;;;;;6.20;5.18;;;17.80;48.90;;;19.88;39.31;97556.78;5054205;28;20066;-39
2023/06/17 02:12:20;;;;;;;6.82;5.97;;;17.90;49.10;;;19.84;39.34;97557.22;5046516;28;20048;-39
2023/06/17 02:14:48;;;;;;;5.82;4.78;;;17.90;49.10;;;19.84;39.27;97553.72;5081016;28;20185;-39
2023/06/17 02:17:16;;;;;;;6.10;5.03;;;17.90;49.10;;;19.83;39.33;97560.16;5056897;28;20731;-39
2023/06/17 02:19:44;;;;;;;6.20;5.10;;;17.90;48.90;;;19.80;39.29;97553.31;5065705;28;20058;-39
2023/06/17 02:22:11;;;;;;;7.65;5.93;;;17.90;48.80;;;19.77;39.10;97544.84;5063746;28;20044;-38
2023/06/17 02:24:40;;;;;;;6.88;5.72;;;17.90;48.40;;;19.76;39.19;97548.59;5054186;28;20527;-38
2023/06/17 02:27:08;;;;;;;7.00;5.20;;;17.90;48.50;;;19.75;39.12;97544.22;5055212;28;20044;-38
2023/06/17 02:29:38;;;;;;;5.13;4.63;;;17.90;48.10;;;19.74;38.91;97548.00;5084404;28;20044;-37
2023/06/17 02:32:06;;;;;;;5.80;4.80;;;17.90;47.90;;;19.72;39.17;97540.13;5057118;28;20056;-38
2023/06/17 02:34:38;;;;;;;7.07;5.38;;;17.90;48.20;;;19.73;39.19;97536.34;5065476;28;20044;-37
2023/06/17 02:37:07;;;;;;;5.18;4.47;;;18.00;48.20;;;19.72;39.18;97531.19;5075336;28;20051;-37
2023/06/17 02:39:35;;;;;;;5.78;4.63;;;17.90;48.40;;;19.70;39.46;97535.94;5060424;28;20508;-37
2023/06/17 02:42:03;;;;;;;6.47;4.60;;;17.90;48.70;;;19.68;39.35;97530.78;5054482;28;20049;-38
2023/06/17 02:44:31;;;;;;;7.50;4.82;;;17.80;48.50;;;19.67;39.21;97526.41;5061582;28;20424;-38
2023/06/17 02:46:59;;;;;;;9.73;4.90;;;17.80;48.10;;;19.65;39.01;97533.91;5053614;28;20423;-37
2023/06/17 02:49:27;;;;;;;7.80;4.65;;;17.80;47.90;;;19.65;38.90;97532.03;5061943;28;20051;-37
2023/06/17 02:51:54;;;;;;;5.40;4.45;;;17.80;47.50;;;19.62;38.89;97532.50;5053697;28;20048;-38
2023/06/17 02:54:22;;;;;;;6.50;4.38;;;17.80;47.60;;;19.63;38.74;97530.59;5056840;28;20047;-38
2023/06/17 02:56:49;;;;;;;6.15;4.93;;;17.70;47.70;;;19.62;38.74;97535.19;5037334;28;20045;-38
2023/06/17 02:59:17;;;;;;;7.10;5.22;;;17.70;47.50;;;19.61;38.94;97535.41;5052045;28;20049;-38
2023/06/17 03:01:47;;;;;;;5.63;4.53;;;17.70;47.70;;;19.59;39.00;97538.31;5053394;28;20562;-38
2023/06/17 03:04:20;;;;;;;6.57;4.50;;;17.70;47.90;;;19.56;39.15;97533.38;5055679;28;20063;-38
2023/06/17 03:06:50;;;;;;;5.68;5.07;;;17.70;48.20;;;19.53;39.21;97535.69;5083056;28;20048;-37
2023/06/17 03:09:18;;;;;;;9.55;4.90;;;17.60;48.40;;;19.47;39.33;97537.41;5080475;28;20407;-37
2023/06/17 03:11:46;;;;;;;5.70;4.85;;;17.50;48.90;;;19.42;39.53;97531.81;5053811;28;20056;-38
2023/06/17 03:14:19;;;;;;;7.82;4.93;;;17.50;49.30;;;19.36;39.72;97535.41;5055352;28;20060;-38
2023/06/17 03:16:47;;;;;;;5.18;4.57;;;17.30;49.60;;;19.32;39.85;97528.81;5035906;28;20045;-38
2023/06/17 03:19:15;;;;;;;5.45;4.60;;;17.30;49.60;;;19.29;39.74;97538.19;5051761;28;20045;-37
2023/06/17 03:21:45;;;;;;;7.45;5.22;;;17.30;49.50;;;19.28;39.62;97541.91;5053752;28;20052;-37
2023/06/17 03:24:13;;;;;;;6.55;5.05;;;17.30;49.10;;;19.25;39.67;97540.47;5055338;28;20048;-38
2023/06/17 03:26:41;;;;;;;6.45;4.85;;;17.30;49.20;;;19.21;39.82;97533.88;5083258;28;20052;-38
2023/06/17 03:29:08;;;;;;;6.65;4.65;;;17.20;49.30;;;19.19;39.83;97535.13;5081805;28;20431;-37
2023/06/17 03:31:36;;;;;;;7.05;4.70;;;17.20;49.40;;;19.17;39.94;97538.03;5061149;28;20041;-37
2023/06/17 03:34:04;;;;;;;6.28;4.95;;;17.20;49.40;;;19.17;39.90;97535.31;5044859;28;20078;-37
2023/06/17 03:36:33;;;;;;;7.10;5.57;;;17.30;49.50;;;19.19;39.91;97544.06;5079644;28;20389;-37
2023/06/17 03:39:01;;;;;;;5.78;4.80;;;17.30;49.10;;;19.19;39.86;97548.59;5052833;28;20504;-38
2023/06/17 03:41:32;;;;;;;10.75;6.32;;;17.40;49.00;;;19.18;39.89;97542.41;5029623;28;20044;-38
2023/06/17 03:44:01;;;;;;;7.40;5.00;;;17.30;49.10;;;19.14;40.22;97543.06;5053261;28;20047;-39
2023/06/17 03:46:29;;;;;;;6.05;4.85;;;17.20;49.80;;;19.08;40.37;97539.38;5044821;28;20071;-38
2023/06/17 03:48:57;;;;;;;7.25;5.68;;;17.20;50.10;;;19.05;40.68;97550.56;5048686;28;20056;-38
2023/06/17 03:51:25;;;;;;;6.30;5.20;;;17.10;50.70;;;19.02;40.56;97549.16;5047231;28;20044;-37
2023/06/17 03:53:53;;;;;;;6.20;5.60;;;17.10;50.60;;;19.03;40.44;97541.88;5058054;28;20075;-38
2023/06/17 03:56:22;;;;;;;6.38;4.72;;;17.20;50.30;;;19.02;40.60;97541.06;5055179;28;20047;-38
2023/06/17 03:58:50;;;;;;;8.88;5.60;;;17.10;50.50;;;18.99;40.69;97544.19;5063976;28;20051;-38
2023/06/17 04:01:18;;;;;;;7.13;6.20;;;17.10;50.60;;;18.97;40.66;97548.97;5056452;28;20044;-38
2023/06/17 04:03:47;;;;;;;7.68;5.90;;;17.00;50.60;;;18.95;40.71;97542.97;5065041;28;20047;-37
2023/06/17 04:06:14;;;;;;;6.60;5.63;;;17.00;50.60;;;18.96;40.72;97544.63;5081186;28;20036;-37
2023/06/17 04:08:44;;;;;;;6.65;5.68;;;17.10;50.40;;;18.97;40.78;97545.44;5052611;28;20053;-37
2023/06/17 04:11:15;;;;;;;5.43;4.93;;;17.10;50.70;;;18.95;40.82;97544.84;5028753;28;20057;-37
2023/06/17 04:13:42;;;;;;;7.22;4.97;;;17.10;50.50;;;18.94;40.86;97548.56;5070973;28;20063;-38
2023/06/17 04:16:11;;;;;;;8.15;6.03;;;17.00;50.70;;;18.94;40.86;97546.72;5052931;28;20055;-37
2023/06/17 04:18:40;;;;;;;6.28;5.25;;;17.10;50.60;;;18.96;40.88;97549.19;5052112;28;20052;-37
2023/06/17 04:21:09;;;;;;;6.95;5.22;;;17.10;50.40;;;18.97;40.80;97551.66;5056536;28;20416;-37
2023/06/17 04:23:36;;;;;;;8.15;6.35;;;17.30;50.20;;;18.99;40.82;97554.16;5064475;28;20040;-37
2023/06/17 04:26:04;;;;;;;7.85;6.18;;;17.30;49.90;;;19.02;40.88;97556.41;5083189;28;20056;-37
2023/06/17 04:28:34;;;;;;;6.28;5.53;;;17.30;50.00;;;19.00;41.06;97555.78;5048641;28;20045;-37
2023/06/17 04:31:02;;;;;;;6.88;5.75;;;17.20;50.60;;;19.02;41.03;97553.72;5056461;28;20055;-37
2023/06/17 04:33:37;;;;;;;6.78;5.88;;;17.20;50.70;;;19.05;41.07;97556.78;5048388;28;20534;-37
2023/06/17 04:36:08;;;;;;;9.20;5.53;;;17.20;50.50;;;19.07;40.96;97543.91;5056293;28;20047;-37
2023/06/17 04:38:38;;;;;;;8.05;5.47;;;17.30;50.50;;;19.08;40.93;97550.16;5041035;28;20083;-41
2023/06/17 04:41:06;;;;;;;5.60;4.80;;;17.30;51.30;;;19.07;40.86;97543.91;5056599;28;20044;-37
2023/06/17 04:43:38;;;;;;;7.30;5.60;;;17.20;50.50;;;19.13;41.05;97552.19;5049002;28;20044;-37
2023/06/17 04:46:08;;;;;;;7.13;5.80;;;17.30;50.60;;;19.15;41.08;97547.41;5056339;28;20052;-38
2023/06/17 04:48:37;;;;;;;6.25;5.28;;;17.40;50.70;;;19.18;41.11;97547.78;5056365;28;20048;-38
2023/06/17 04:51:08;;;;;;;7.68;5.68;;;17.40;50.40;;;19.20;41.19;97542.19;5056027;28;20075;-38
2023/06/17 04:53:39;;;;;;;5.78;4.85;;;17.50;50.50;;;19.23;41.11;97549.81;5028614;28;20037;-38
2023/06/17 04:56:07;;;;;;;8.55;5.55;;;17.50;50.50;;;19.27;41.09;97546.47;5051981;28;20045;-38
2023/06/17 04:58:36;;;;;;;6.50;5.53;;;17.50;50.60;;;19.32;41.14;97545.00;5055479;28;20047;-38
2023/06/17 05:01:11;;;;;;;6.10;5.22;;;17.60;50.60;;;19.37;41.31;97547.88;5055732;28;20064;-38
2023/06/17 05:03:39;;;;;;;6.95;5.57;;;17.60;50.50;;;19.43;41.37;97560.47;5055557;28;20044;-37
2023/06/17 05:06:07;;;;;;;7.95;5.80;;;17.70;50.50;;;19.45;41.07;97550.28;5068977;28;20049;-38
2023/06/17 05:08:35;;;;;;;7.07;5.43;;;17.70;50.20;;;19.46;40.94;97554.63;5023106;28;20064;-38
2023/06/17 05:11:03;;;;;;;8.27;6.05;;;17.70;50.10;;;19.50;40.98;97552.31;5056031;28;20056;-37
2023/06/17 05:13:34;;;;;;;5.45;4.90;;;17.80;49.90;;;19.54;40.82;97554.38;5072193;28;20064;-38
2023/06/17 05:16:03;;;;;;;8.10;5.75;;;17.90;49.70;;;19.59;40.87;97557.22;5055184;28;20064;-38
2023/06/17 05:18:32;;;;;;;9.40;5.72;;;18.00;49.70;;;19.66;40.62;97547.19;5065688;28;20043;-38
2023/06/17 05:21:03;;;;;;;6.22;5.63;;;18.10;49.40;;;19.69;40.75;97548.63;5060544;28;20040;-38
2023/06/17 05:23:31;;;;;;;10.60;5.97;;;18.20;49.20;;;19.74;41.12;97553.41;5058042;28;20530;-38
2023/06/17 05:25:59;;;;;;;6.72;5.13;;;18.30;49.60;;;19.80;41.09;97561.44;5060399;28;20056;-38
2023/06/17 05:28:27;;;;;;;10.23;5.95;;;18.40;49.60;;;19.87;41.01;97561.34;5057125;28;20407;-38
2023/06/17 05:30:55;;;;;;;8.10;5.60;;;18.50;49.50;;;19.92;41.10;97564.22;5066707;28;20058;-38
2023/06/17 05:33:24;;;;;;;6.20;4.97;;;18.50;49.30;;;19.97;40.89;97556.28;5058866;28;20057;-38
2023/06/17 05:35:51;;;;;;;7.25;5.47;;;18.50;49.30;;;19.98;40.83;97563.31;5061736;28;20048;-38
2023/06/17 05:38:19;;;;;;;7.75;5.68;;;18.60;49.10;;;19.96;41.15;97559.22;5082450;28;20052;-39
2023/06/17 05:40:46;;;;;;;11.40;5.70;;;18.60;49.00;;;19.95;41.06;97568.34;5066743;28;20044;-38
2023/06/17 05:43:14;;;;;;;7.95;6.53;;;18.70;49.10;;;19.96;41.22;97570.81;5058652;28;20055;-38
2023/06/17 05:45:44;;;;;;;7.53;5.28;;;18.70;49.20;;;19.97;41.16;97561.69;5063262;28;20075;-38
2023/06/17 05:48:12;;;;;;;6.43;5.80;;;18.80;49.20;;;20.06;41.36;97563.06;5038487;28;20058;-38
2023/06/17 05:50:40;;;;;;;7.88;6.82;;;18.80;49.30;;;20.12;41.31;97563.19;5073384;28;20051;-38
2023/06/17 05:53:08;;;;;;;6.07;5.22;;;18.80;49.40;;;20.18;41.33;97559.59;5054832;28;20056;-39
2023/06/17 05:55:35;;;;;;;6.45;5.05;;;18.90;49.50;;;20.26;41.33;97576.34;5081021;28;20048;-39
2023/06/17 05:58:03;;;;;;;5.75;5.07;;;18.90;49.50;;;20.34;41.34;97574.41;5054577;28;20428;-39
2023/06/17 06:00:33;;;;;;;5.53;4.80;;;19.00;49.40;;;20.41;41.24;97575.97;5037815;28;20056;-39
2023/06/17 06:03:00;;;;;;;10.18;5.30;;;19.00;49.80;;;20.46;41.54;97583.41;5055157;28;20123;-39
2023/06/17 06:05:28;;;;;;;7.25;5.18;;;19.00;50.30;;;20.46;41.22;97584.22;5064553;28;20051;-38
2023/06/17 06:07:56;;;;;;;5.85;5.25;;;19.00;50.20;;;20.51;41.32;97578.16;5061045;28;20111;-39
2023/06/17 06:10:26;;;;;;;6.30;4.85;;;19.00;50.80;;;20.56;40.89;97575.56;5082233;28;20051;-39
2023/06/17 06:12:56;;;;;;;5.85;5.07;;;19.10;49.70;;;20.63;40.87;97578.25;5060875;28;20060;-39
2023/06/17 06:15:25;;;;;;;6.72;4.60;;;19.10;49.10;;;20.69;40.94;97574.63;5054498;28;20412;-38
2023/06/17 06:17:53;;;;;;;7.25;5.32;;;19.30;49.10;;;20.77;40.83;97570.78;5057601;28;20044;-38
2023/06/17 06:20:21;;;;;;;7.35;5.30;;;19.40;48.80;;;20.83;40.46;97577.97;5054540;28;20068;-39
2023/06/17 06:22:49;;;;;;;7.60;4.95;;;19.50;48.60;;;20.90;40.31;97575.16;5045404;28;20040;-38
2023/06/17 06:25:17;;;;;;;8.90;4.90;;;19.60;48.40;;;20.95;40.21;97581.53;5054111;28;20052;-38
2023/06/17 06:27:44;;;;;;;6.25;5.22;;;19.60;48.10;;;21.00;40.10;97573.56;5067806;28;20439;-39
2023/06/17 06:30:13;;;;;;;6.03;5.30;;;19.70;47.80;;;21.06;40.15;97581.84;5058148;28;20047;-39
2023/06/17 06:32:44;;;;;;;5.82;4.85;;;19.80;47.50;;;21.12;39.58;97586.31;5058533;28;20033;-38
2023/06/17 06:35:13;;;;;;;7.65;5.53;;;19.90;46.80;;;21.16;39.75;97577.50;5049209;28;20052;-39
2023/06/17 06:37:40;;;;;;;6.03;5.32;;;20.00;46.50;;;21.22;39.41;97584.69;5053080;28;20044;-38
2023/06/17 06:40:09;;;;;;;5.03;4.53;;;20.00;46.40;;;21.25;38.76;97580.72;5079070;28;20051;-38
2023/06/17 06:42:38;;;;;;;6.95;5.13;;;20.10;45.90;;;21.32;38.76;97591.44;5045114;28;20411;-38
2023/06/17 06:45:19;;;;;;;6.03;4.97;;;20.10;45.60;;;21.36;38.75;97584.50;5053685;28;20036;-38
2023/06/17 06:47:46;;;;;;;5.32;4.55;;;20.20;45.10;;;21.43;38.77;97585.22;5045161;28;20044;-38
2023/06/17 06:50:14;;;;;;;6.05;5.45;;;20.20;45.40;;;21.46;39.05;97587.53;5053690;28;20044;-39
2023/06/17 06:52:42;;;;;;;7.25;5.05;;;20.30;45.50;;;21.52;38.65;97589.28;5053869;28;20051;-38
2023/06/17 06:55:10;;;;;;;8.05;5.35;;;20.40;45.60;;;21.58;39.37;97587.53;5037029;28;20529;-38
2023/06/17 06:57:38;;;;;;;8.15;5.30;;;20.40;46.00;;;21.65;38.84;97592.84;5051840;28;20535;-38
2023/06/17 07:00:09;;;;;;;7.13;5.38;;;20.50;45.80;;;21.69;38.55;97585.88;5061709;28;20059;-38
2023/06/17 07:02:38;;;;;;;5.20;4.70;;;20.50;45.40;;;21.76;38.87;97592.03;5063827;28;20048;-38
2023/06/17 07:05:07;;;;;;;5.88;4.78;;;20.60;45.60;;;21.87;38.96;97602.06;5058336;28;20427;-38
2023/06/17 07:07:41;;;;;;;6.82;4.68;;;20.70;45.50;;;21.94;40.01;97600.03;5055127;28;20516;-39
2023/06/17 07:10:09;;;;;;;6.07;5.10;;;20.80;47.20;;;21.98;40.20;97594.97;5047636;28;20040;-39
2023/06/17 07:12:37;;;;;;;6.45;4.80;;;20.90;47.10;;;22.03;39.57;97598.63;5059588;28;20078;-38
2023/06/17 07:15:06;;;;;;;5.10;4.60;;;20.90;46.80;;;22.08;39.53;97597.09;5052323;28;20500;-38
2023/06/17 07:17:33;;;;;;;6.70;5.22;;;21.00;46.70;;;22.12;39.86;97595.56;5052333;28;20040;-38
2023/06/17 07:20:05;;;;;;;5.32;4.40;;;21.00;46.70;;;22.17;39.50;97596.50;5031878;28;20043;-38
2023/06/17 07:22:35;;;;;;;6.60;4.93;;;21.10;46.40;;;22.25;39.40;97600.75;5041454;28;20048;-37
2023/06/17 07:25:03;;;;;;;8.13;5.63;;;21.20;46.40;;;22.28;39.26;97600.31;5052669;28;20423;-37
2023/06/17 07:27:31;;;;;;;6.20;5.47;;;21.20;46.30;;;22.33;39.50;97605.00;5052998;28;20503;-39
2023/06/17 07:29:59;;;;;;;6.80;5.82;;;21.20;46.30;;;22.36;39.07;97601.81;5083251;28;20063;-38
2023/06/17 07:32:27;;;;;;;7.80;5.60;;;21.30;46.10;;;22.41;38.59;97601.91;5082117;28;20076;-38
2023/06/17 07:34:56;;;;;;;6.15;5.55;;;21.30;45.50;;;22.47;39.56;97605.56;5079438;28;20051;-38
2023/06/17 07:37:25;;;;;;;6.47;5.55;;;21.30;46.70;;;22.52;39.59;97611.94;5052507;28;20041;-38
2023/06/17 07:39:53;;;;;;;6.78;5.43;;;21.40;46.60;;;22.57;39.38;97601.19;5031895;28;20044;-38
2023/06/17 07:42:21;;;;;;;6.28;5.45;;;21.40;46.20;;;22.64;39.39;97605.66;5082798;28;20032;-38
2023/06/17 07:44:49;;;;;;;6.40;5.80;;;21.60;46.20;;;22.72;39.34;97600.69;5079276;28;20052;-38
2023/06/17 07:47:17;;;;;;;7.30;5.05;;;21.70;46.00;;;22.79;39.59;97604.06;5052870;28;20049;-39
2023/06/17 07:49:45;;;;;;;6.43;5.68;;;21.70;46.30;;;22.86;39.89;97605.84;5081905;28;20055;-39
2023/06/17 07:52:13;;;;;;;6.07;5.22;;;21.80;46.80;;;22.90;39.06;97598.88;5057772;28;20044;-39
2023/06/17 07:54:41;;;;;;;5.70;5.03;;;21.90;46.70;;;22.95;38.66;97598.94;5080270;28;20554;-39
2023/06/17 07:57:08;;;;;;;6.82;5.53;;;21.90;44.90;;;22.97;38.54;97594.94;5081929;28;20051;-39
2023/06/17 07:59:36;;;;;;;5.80;5.30;;;21.90;45.00;;;23.03;38.47;97595.06;5081212;28;20047;-39
2023/06/17 08:02:03;;;;;;;6.97;4.72;;;21.90;44.70;;;23.05;37.44;97595.63;5079238;28;20036;-39
2023/06/17 08:04:35;;;;;;;5.85;4.70;;;22.00;42.80;;;23.00;36.88;97597.16;5079912;28;20419;-39
2023/06/17 08:07:04;;;;;;;6.60;4.97;;;22.00;42.60;;;23.02;37.03;97599.63;5081983;28;20048;-39
2023/06/17 08:09:32;;;;;;;5.88;4.80;;;21.90;42.70;;;23.09;36.74;97589.50;5081643;28;20036;-39
2023/06/17 08:11:59;;;;;;;6.35;4.93;;;22.00;42.20;;;23.13;36.95;97596.09;5079178;28;20044;-39
2023/06/17 08:14:27;;;;;;;8.75;6.60;;;22.10;42.80;;;23.19;37.12;97594.28;5079290;28;20037;-39
2023/06/17 08:16:55;;;;;;;6.15;5.60;;;22.10;42.80;;;23.23;36.18;97586.50;5087103;28;20047;-38
2023/06/17 08:19:22;;;;;;;9.65;4.97;;;22.30;41.20;;;23.28;35.05;97586.56;5078028;28;20412;-38
2023/06/17 08:21:50;;;;;;;5.50;4.45;;;22.30;39.80;;;23.31;35.28;97586.09;5070341;28;20044;-39
2023/06/17 08:24:24;;;;;;;6.15;4.90;;;22.30;40.20;;;23.34;35.66;97586.41;5076889;28;20502;-38
2023/06/17 08:26:53;;;;;;;5.85;4.93;;;22.40;40.60;;;23.41;35.25;97591.69;5079254;28;20044;-39
2023/06/17 08:29:21;;;;;;;5.50;4.40;;;22.40;40.40;;;23.47;34.29;97587.16;5079078;28;20049;-38
2023/06/17 08:31:52;;;;;;;5.53;4.70;;;22.40;39.20;;;23.49;34.83;97579.59;5081134;28;20044;-38
2023/06/17 08:34:21;;;;;;;7.90;5.28;;;22.50;39.40;;;23.51;35.15;97580.16;5082274;28;20048;-38
2023/06/17 08:36:54;;;;;;;5.75;5.15;;;22.50;39.70;;;23.54;34.85;97579.69;5047157;28;20068;-39
2023/06/17 08:39:22;;;;;;;6.22;4.35;;;22.60;39.20;;;23.58;34.60;97581.66;5082294;28;20043;-39
2023/06/17 08:41:49;;;;;;;5.88;4.55;;;22.60;39.20;;;23.62;34.20;97571.13;5055727;28;20051;-39
2023/06/17 08:44:21;;;;;;;6.88;5.40;;;22.70;38.70;;;23.71;33.93;97576.94;5076254;28;20396;-39
2023/06/17 08:46:51;;;;;;;7.93;5.30;;;22.80;38.70;;;23.77;33.93;97586.84;5052588;28;20071;-38
2023/06/17 08:49:20;;;;;;;6.18;4.90;;;22.80;38.40;;;23.84;33.35;97578.56;5053022;28;20044;-38
2023/06/17 08:51:51;;;;;;;7.60;5.22;;;22.80;37.40;;;23.88;32.57;97580.50;5059505;28;20052;-38
2023/06/17 08:54:22;;;;;;;9.07;5.15;;;22.90;36.50;;;23.95;32.58;97574.94;5044833;28;20045;-38
2023/06/17 08:56:50;;;;;;;5.82;4.80;;;23.00;35.70;;;23.96;32.26;97563.81;5066992;28;20443;-38
2023/06/17 08:59:17;;;;;;;7.13;5.70;;;23.00;36.00;;;24.03;32.42;97577.22;5077127;28;20075;-39
2023/06/17 09:01:47;;;;;;;5.60;4.55;;;23.10;36.00;;;24.00;31.81;97569.56;5068500;28;20059;-38
2023/06/17 09:04:14;;;;;;;6.97;5.22;;;23.10;35.50;;;24.07;32.17;97575.63;5051848;28;20064;-38
2023/06/17 09:06:42;;;;;;;5.35;4.82;;;23.10;36.20;;;24.10;31.75;97571.63;5076021;28;20040;-38
2023/06/17 09:09:12;;;;;;;6.97;5.85;;;23.10;36.50;;;24.15;31.91;97567.03;5075389;28;20048;-39
2023/06/17 09:11:40;;;;;;;6.82;5.13;;;23.20;35.90;;;24.20;31.85;97570.94;5073686;28;20049;-38
2023/06/17 09:14:07;;;;;;;7.40;5.13;;;23.30;35.30;;;24.27;31.55;97572.41;5082436;28;20408;-38
2023/06/17 09:16:35;;;;;;;6.18;4.75;;;23.30;35.40;;;24.28;31.37;97571.31;5079745;28;20040;-38
2023/06/17 09:19:08;;;;;;;5.90;4.68;;;23.30;35.10;;;24.31;31.29;97572.69;5082964;28;20028;-39
2023/06/17 09:21:36;;;;;;;5.22;4.72;;;23.30;35.10;;;24.33;30.19;97571.38;5085375;28;20040;-39
2023/06/17 09:24:07;;;;;;;6.22;4.75;;;23.30;33.80;;;24.35;30.38;97568.44;5072953;28;20037;-39
2023/06/17 09:26:40;;;;;;;5.57;4.03;;;23.30;33.30;;;24.42;30.39;97571.75;5073247;28;20047;-38
2023/06/17 09:29:10;;;;;;;5.07;4.45;;;23.40;33.90;;;24.43;29.62;97569.84;5065630;28;20040;-38
2023/06/17 09:32:04;;;;;;;6.40;4.63;;;23.50;32.70;;;24.48;29.98;97573.47;5055064;28;20052;-39
2023/06/17 09:34:32;;;;;;;6.43;4.75;;;23.50;31.60;;;24.50;28.52;97567.78;5073705;28;20056;-39
2023/06/17 09:37:01;;;;;;;5.85;5.25;;;23.60;30.40;;;24.58;28.64;97555.66;5081695;28;20435;-39
2023/06/17 09:39:31;;;;;;;6.00;5.03;;;23.70;31.40;;;24.64;28.46;97560.09;5055120;28;20051;-38
2023/06/17 09:42:10;;;;;;;5.25;4.70;;;23.70;30.80;;;24.65;27.91;97557.13;5083823;28;20049;-38
2023/06/17 09:44:44;;;;;;;6.47;5.20;;;23.70;29.00;;;24.71;27.99;97550.66;5059650;28;20053;-38
2023/06/17 09:47:11;;;;;;;5.03;4.30;;;23.70;30.50;;;24.77;27.93;97554.25;5073282;28;20048;-39
2023/06/17 09:49:39;;;;;;;6.70;5.00;;;23.90;30.40;;;24.84;27.81;97556.78;5081509;28;20419;-39
2023/06/17 09:52:09;;;;;;;6.85;4.50;;;23.90;30.40;;;24.87;27.75;97546.22;5084319;28;20040;-39
2023/06/17 09:54:37;;;;;;;7.30;5.35;;;23.90;30.50;;;24.92;27.43;97542.72;5059836;28;20032;-39
2023/06/17 09:57:09;;;;;;;5.75;5.13;;;24.00;29.80;;;24.95;27.42;97540.31;5083526;28;20412;-38
2023/06/17 09:59:37;;;;;;;5.85;4.68;;;24.00;29.90;;;25.02;27.12;97542.00;5084527;28;20048;-39
2023/06/17 10:02:38;;;;;;;5.47;4.90;;;24.20;29.70;;;25.08;27.35;97539.06;5084208;28;20056;-46
2023/06/17 10:05:12;;;;;;;5.03;4.53;;;24.20;28.30;;;25.15;26.67;97545.13;5082946;28;20515;-38
2023/06/17 10:07:41;;;;;;;6.25;4.88;;;24.30;28.90;;;25.12;26.47;97536.66;5057902;28;20047;-38
2023/06/17 10:10:11;;;;;;;5.43;4.43;;;24.40;29.00;;;25.13;26.76;97539.13;5057996;28;20055;-37
2023/06/17 10:12:42;;;;;;;5.82;5.07;;;24.40;29.20;;;25.25;26.65;97535.44;5084645;28;20062;-39
2023/06/17 10:15:12;;;;;;;6.05;5.18;;;24.60;29.10;;;25.22;26.43;97531.34;5046260;28;20040;-44
2023/06/17 10:17:43;;;;;;;5.75;5.22;;;24.50;29.00;;;25.21;26.94;97535.09;5054547;28;20495;-44
2023/06/17 10:20:14;;;;;;;7.22;6.50;;;24.60;29.10;;;25.31;26.45;97532.50;5075292;28;20415;-46
2023/06/17 10:22:42;;;;;;;6.15;4.55;;;24.60;28.50;;;25.44;26.35;97525.00;5059423;28;20047;-45
2023/06/17 10:25:15;;;;;;;5.60;4.90;;;24.60;29.00;;;25.49;26.36;97517.69;5084112;28;20036;-46
2023/06/17 10:27:44;;;;;;;7.07;5.10;;;24.60;28.80;;;25.51;25.85;97512.78;5054416;28;20111;-46
2023/06/17 10:30:26;;;;;;;4.90;4.40;;;24.60;28.30;;;25.50;25.90;97513.03;5054317;28;20044;-45